createdAt,value
2023-04-19T00:01:32.740Z,12.07
2023-04-19T00:04:00.701Z,12.06
2023-04-19T00:06:30.527Z,12.05
2023-04-19T00:08:58.402Z,12.04
2023-04-19T00:11:26.225Z,12.03
2023-04-19T00:13:53.921Z,12.03
2023-04-19T00:16:23.028Z,12.03
2023-04-19T00:18:50.744Z,12.03
2023-04-19T00:21:18.535Z,11.93
2023-04-19T00:23:46.281Z,12.01
2023-04-19T00:26:15.821Z,12.02
2023-04-19T00:28:43.541Z,12.03
2023-04-19T00:31:11.321Z,12.02
2023-04-19T00:33:40.473Z,12.04
2023-04-19T00:36:08.735Z,12.03
2023-04-19T00:38:36.434Z,12.01
2023-04-19T00:41:04.113Z,11.99
2023-04-19T00:43:31.833Z,12.02
2023-04-19T00:46:00.030Z,12.02
2023-04-19T00:48:27.835Z,12.03
2023-04-19T00:50:56.936Z,12.03
2023-04-19T00:53:24.628Z,12.02
2023-04-19T00:55:52.569Z,12.02
2023-04-19T00:58:20.324Z,12.02
2023-04-19T01:00:48.025Z,12.02
2023-04-19T01:03:17.021Z,12.03
2023-04-19T01:05:44.873Z,12.02
2023-04-19T01:08:13.956Z,12.02
2023-04-19T01:10:41.734Z,12.02
2023-04-19T01:13:09.500Z,12.01
2023-04-19T01:15:37.669Z,12.00
2023-04-19T01:18:05.751Z,11.99
2023-04-19T01:20:33.508Z,11.99
2023-04-19T01:23:02.795Z,12.00
2023-04-19T01:25:30.512Z,12.00
2023-04-19T01:27:58.246Z,12.00
2023-04-19T01:30:25.968Z,12.00
2023-04-19T01:32:53.736Z,11.99
2023-04-19T01:35:21.502Z,11.99
2023-04-19T01:37:49.208Z,11.99
2023-04-19T01:40:19.023Z,11.98
2023-04-19T01:42:46.744Z,11.99
2023-04-19T01:45:14.494Z,11.99
2023-04-19T01:47:42.344Z,11.97
2023-04-19T01:50:10.866Z,11.98
2023-04-19T01:52:38.596Z,11.96
2023-04-19T01:55:06.588Z,11.96
2023-04-19T01:57:35.648Z,11.96
2023-04-19T02:00:03.644Z,11.93
2023-04-19T02:02:31.457Z,11.96
2023-04-19T02:04:59.202Z,11.95
2023-04-19T02:07:26.965Z,11.92
2023-04-19T02:09:54.613Z,11.93
2023-04-19T02:12:22.393Z,11.93
2023-04-19T02:14:51.423Z,11.93
2023-04-19T02:17:19.100Z,11.95
2023-04-19T02:19:46.789Z,11.94
2023-04-19T02:22:14.458Z,11.95
2023-04-19T02:24:42.243Z,11.95
2023-04-19T02:27:09.989Z,11.96
2023-04-19T02:29:39.195Z,11.95
2023-04-19T02:32:08.397Z,11.95
2023-04-19T02:34:36.378Z,11.96
2023-04-19T02:37:04.261Z,11.96
2023-04-19T02:39:32.685Z,11.94
2023-04-19T02:42:01.161Z,11.95
2023-04-19T02:44:28.871Z,11.95
2023-04-19T02:46:57.639Z,11.95
2023-04-19T02:49:26.845Z,11.95
2023-04-19T02:51:54.549Z,11.95
2023-04-19T02:54:22.254Z,11.95
2023-04-19T02:56:49.960Z,11.95
2023-04-19T02:59:17.662Z,11.94
2023-04-19T03:01:45.420Z,11.94
2023-04-19T03:04:13.274Z,11.93
2023-04-19T03:06:44.383Z,11.95
2023-04-19T03:09:12.117Z,11.92
2023-04-19T03:11:40.483Z,11.93
2023-04-19T03:14:08.202Z,11.94
2023-04-19T03:16:36.590Z,11.92
2023-04-19T03:19:04.332Z,11.92
2023-04-19T03:21:31.996Z,11.90
2023-04-19T03:24:01.058Z,11.89
2023-04-19T03:26:28.860Z,11.89
2023-04-19T03:28:56.547Z,11.88
2023-04-19T03:31:24.294Z,11.89
2023-04-19T03:33:52.098Z,11.88
2023-04-19T03:36:19.785Z,11.88
2023-04-19T03:38:47.469Z,11.79
2023-04-19T03:41:24.744Z,11.85
2023-04-19T03:43:52.670Z,11.88
2023-04-19T03:46:20.440Z,11.87
2023-04-19T03:48:48.691Z,11.86
2023-04-19T03:51:16.908Z,11.87
2023-04-19T03:53:44.740Z,11.86
2023-04-19T03:56:12.456Z,11.86
2023-04-19T03:58:42.780Z,11.85
2023-04-19T04:01:19.167Z,11.86
2023-04-19T04:03:47.071Z,11.85
2023-04-19T04:06:14.927Z,11.86
2023-04-19T04:08:42.642Z,11.86
2023-04-19T04:11:10.633Z,11.84
2023-04-19T04:13:38.416Z,11.85
2023-04-19T04:16:07.686Z,11.84
2023-04-19T04:18:35.672Z,11.84
2023-04-19T04:21:03.513Z,11.83
2023-04-19T04:23:31.211Z,11.82
2023-04-19T04:26:00.766Z,11.81
2023-04-19T04:28:28.738Z,11.82
2023-04-19T04:30:57.457Z,11.83
2023-04-19T04:33:27.407Z,11.83
2023-04-19T04:35:56.346Z,11.82
2023-04-19T04:38:25.190Z,11.82
2023-04-19T04:40:54.434Z,11.80
2023-04-19T04:43:22.850Z,11.79
2023-04-19T04:45:51.003Z,11.74
2023-04-19T04:48:18.995Z,11.78
2023-04-19T04:50:48.031Z,11.79
2023-04-19T04:53:15.780Z,11.79
2023-04-19T04:55:43.475Z,11.69
2023-04-19T04:58:11.220Z,11.74
2023-04-19T05:00:38.954Z,11.76
2023-04-19T05:03:06.796Z,11.73
2023-04-19T05:05:34.782Z,11.72
2023-04-19T05:08:03.839Z,11.72
2023-04-19T05:10:31.537Z,11.72
2023-04-19T05:12:59.283Z,11.72
2023-04-19T05:15:26.937Z,11.71
2023-04-19T05:17:54.713Z,11.71
2023-04-19T05:20:22.689Z,11.72
2023-04-19T05:22:50.363Z,11.70
2023-04-19T05:25:19.408Z,11.70
2023-04-19T05:27:47.130Z,11.69
2023-04-19T05:30:15.232Z,11.68
2023-04-19T05:32:43.219Z,11.68
2023-04-19T05:35:11.635Z,11.70
2023-04-19T05:37:39.597Z,11.71
2023-04-19T05:40:10.163Z,11.70
2023-04-19T05:42:39.647Z,11.71
2023-04-19T05:45:08.325Z,11.73
2023-04-19T05:47:36.089Z,11.74
2023-04-19T05:50:03.900Z,11.68
2023-04-19T05:52:31.788Z,11.67
2023-04-19T05:54:59.517Z,11.61
2023-04-19T05:57:27.273Z,11.68
2023-04-19T05:59:56.448Z,11.71
2023-04-19T06:02:24.300Z,11.69
2023-04-19T06:04:52.414Z,11.70
2023-04-19T06:07:30.923Z,11.70
2023-04-19T06:10:00.528Z,11.73
2023-04-19T06:12:28.778Z,11.76
2023-04-19T06:14:57.946Z,11.81
2023-04-19T06:17:25.832Z,11.83
2023-04-19T06:19:54.245Z,11.85
2023-04-19T06:22:22.419Z,11.85
2023-04-19T06:24:50.645Z,11.88
2023-04-19T06:27:18.538Z,11.88
2023-04-19T06:29:46.313Z,11.87
2023-04-19T06:32:15.589Z,11.87
2023-04-19T06:34:43.382Z,11.87
2023-04-19T06:37:11.394Z,11.87
2023-04-19T06:39:39.100Z,11.87
2023-04-19T06:42:07.070Z,11.88
2023-04-19T06:44:34.775Z,11.89
2023-04-19T06:47:02.687Z,11.81
2023-04-19T06:49:32.363Z,11.88
2023-04-19T06:52:01.077Z,11.90
2023-04-19T06:54:28.767Z,11.92
2023-04-19T06:56:57.682Z,11.95
2023-04-19T06:59:28.203Z,11.97
2023-04-19T07:01:57.504Z,11.98
2023-04-19T07:04:26.267Z,11.99
2023-04-19T07:06:55.583Z,12.03
2023-04-19T07:09:23.357Z,12.07
2023-04-19T07:11:51.371Z,12.09
2023-04-19T07:14:19.467Z,12.10
2023-04-19T07:16:47.505Z,12.12
2023-04-19T07:19:15.284Z,12.14
2023-04-19T07:21:42.980Z,12.15
2023-04-19T07:24:12.004Z,12.17
2023-04-19T07:26:39.698Z,12.18
2023-04-19T07:29:07.395Z,12.22
2023-04-19T07:31:35.321Z,12.25
2023-04-19T07:34:03.158Z,12.25
2023-04-19T07:36:31.773Z,12.25
2023-04-19T07:38:59.477Z,12.24
2023-04-19T07:41:28.954Z,12.24
2023-04-19T07:43:56.696Z,12.23
2023-04-19T07:46:24.512Z,12.19
2023-04-19T07:48:52.250Z,12.21
2023-04-19T07:51:20.570Z,12.20
2023-04-19T07:53:48.631Z,12.19
2023-04-19T07:56:16.869Z,12.18
2023-04-19T07:58:50.866Z,12.19
2023-04-19T08:01:24.714Z,12.18
2023-04-19T08:03:53.041Z,12.17
2023-04-19T08:06:21.660Z,12.25
2023-04-19T08:08:50.240Z,12.38
2023-04-19T08:11:17.998Z,12.58
2023-04-19T08:14:02.957Z,12.76
2023-04-19T08:17:14.561Z,13.15
2023-04-19T08:19:22.088Z,13.42
2023-04-19T08:21:49.765Z,13.66
2023-04-19T08:24:17.768Z,13.86
2023-04-19T08:26:53.447Z,14.08
2023-04-19T08:29:23.142Z,14.32
2023-04-19T08:31:51.008Z,14.30
2023-04-19T08:34:18.815Z,14.27
2023-04-19T08:37:00.117Z,14.11
2023-04-19T08:39:33.146Z,13.91
2023-04-19T08:42:10.405Z,13.69
2023-04-19T08:44:59.074Z,13.50
2023-04-19T08:47:34.216Z,13.38
2023-04-19T08:50:17.256Z,13.25
2023-04-19T08:52:58.739Z,13.16
2023-04-19T08:55:30.318Z,13.15
2023-04-19T08:57:58.566Z,13.10
2023-04-19T09:00:27.764Z,13.07
2023-04-19T09:02:55.955Z,13.02
2023-04-19T09:05:24.022Z,12.99
2023-04-19T09:07:52.394Z,12.94
2023-04-19T09:10:21.824Z,12.84
2023-04-19T09:13:02.087Z,12.89
2023-04-19T09:15:44.510Z,12.82
2023-04-19T09:18:14.248Z,12.88
2023-04-19T09:20:43.867Z,12.84
2023-04-19T09:23:13.483Z,12.88
2023-04-19T09:25:59.226Z,12.87
2023-04-19T09:28:29.859Z,12.90
2023-04-19T09:31:10.635Z,12.90
2023-04-19T09:33:40.057Z,12.89
2023-04-19T09:36:09.116Z,12.89
2023-04-19T09:38:48.865Z,12.90
2023-04-19T09:41:17.338Z,12.94
2023-04-19T09:44:02.276Z,12.97
2023-04-19T09:46:35.532Z,12.95
2023-04-19T09:49:25.297Z,12.99
2023-04-19T09:52:06.533Z,13.00
2023-04-19T09:54:34.577Z,13.06
2023-04-19T09:57:02.695Z,13.05
2023-04-19T09:59:30.542Z,13.04
2023-04-19T10:02:02.030Z,13.07
2023-04-19T10:04:47.817Z,12.98
2023-04-19T10:07:30.047Z,13.09
2023-04-19T10:15:07.041Z,13.21
2023-04-19T10:17:36.280Z,13.23
2023-04-19T10:20:07.916Z,13.24
2023-04-19T10:22:37.712Z,13.22
2023-04-19T10:25:16.110Z,13.19
2023-04-19T10:27:46.664Z,13.19
2023-04-19T10:30:19.166Z,13.20
2023-04-19T10:32:54.010Z,13.24
2023-04-19T10:35:23.264Z,13.27
2023-04-19T10:38:07.717Z,13.28
2023-04-19T10:41:00.730Z,13.29
2023-04-19T10:43:30.074Z,13.30
2023-04-19T10:46:01.686Z,13.31
2023-04-19T10:48:43.976Z,13.32
2023-04-19T10:51:16.821Z,13.33
2023-04-19T10:53:52.462Z,13.38
2023-04-19T10:56:22.069Z,13.42
2023-04-19T10:59:21.834Z,13.46
2023-04-19T11:01:54.842Z,13.52
2023-04-19T11:04:46.593Z,13.61
2023-04-19T11:07:14.546Z,13.64
2023-04-19T11:09:47.130Z,13.64
2023-04-19T11:12:15.999Z,13.67
2023-04-19T11:14:45.794Z,13.68
2023-04-19T11:17:18.123Z,13.72
2023-04-19T11:19:54.705Z,13.76
2023-04-19T11:22:26.802Z,13.78
2023-04-19T11:24:54.473Z,13.77
2023-04-19T11:27:22.669Z,13.81
2023-04-19T11:29:50.404Z,13.84
2023-04-19T11:32:19.695Z,13.89
2023-04-19T11:34:48.831Z,13.90
2023-04-19T11:37:16.526Z,13.84
2023-04-19T11:39:48.283Z,13.90
2023-04-19T11:42:22.005Z,13.89
2023-04-19T11:44:51.761Z,13.89
2023-04-19T11:47:19.920Z,13.88
2023-04-19T11:49:49.024Z,13.88
2023-04-19T11:52:23.470Z,13.87
2023-04-19T11:54:52.232Z,13.79
2023-04-19T11:57:29.515Z,13.87
2023-04-19T12:00:07.699Z,13.88
2023-04-19T12:02:39.978Z,13.88
2023-04-19T12:05:14.853Z,13.88
2023-04-19T12:08:07.960Z,13.89
2023-04-19T12:10:36.578Z,13.91
2023-04-19T12:13:17.971Z,13.93
2023-04-19T12:15:46.690Z,13.91
2023-04-19T12:18:15.812Z,13.90
2023-04-19T12:20:47.602Z,13.97
2023-04-19T12:23:16.042Z,13.99
2023-04-19T12:25:46.113Z,14.02
2023-04-19T12:28:14.947Z,14.10
2023-04-19T12:30:43.254Z,14.13
2023-04-19T12:33:11.287Z,14.15
2023-04-19T12:35:39.855Z,14.12
2023-04-19T12:38:09.553Z,14.14
2023-04-19T12:40:37.248Z,14.18
2023-04-19T12:43:07.026Z,14.22
2023-04-19T12:45:35.106Z,14.27
2023-04-19T12:48:02.957Z,14.28
2023-04-19T12:50:30.742Z,14.30
2023-04-19T12:52:58.434Z,14.36
2023-04-19T12:55:27.731Z,14.42
2023-04-19T12:57:55.493Z,14.39
2023-04-19T13:00:23.214Z,14.51
2023-04-19T13:02:51.103Z,14.60
2023-04-19T13:05:18.948Z,14.62
2023-04-19T13:07:46.923Z,14.74
2023-04-19T13:10:14.689Z,14.75
2023-04-19T13:12:43.875Z,14.85
2023-04-19T13:15:12.242Z,14.80
2023-04-19T13:17:39.999Z,14.82
2023-04-19T13:20:09.483Z,14.78
2023-04-19T13:22:37.211Z,14.73
2023-04-19T13:25:05.300Z,14.71
2023-04-19T13:27:32.999Z,14.69
2023-04-19T13:30:02.089Z,14.69
2023-04-19T13:32:30.389Z,14.77
2023-04-19T13:34:58.197Z,14.80
2023-04-19T13:37:26.010Z,14.82
2023-04-19T13:39:55.225Z,14.81
2023-04-19T13:42:29.090Z,14.80
2023-04-19T13:44:56.834Z,14.79
2023-04-19T13:47:26.048Z,14.84
2023-04-19T13:49:54.074Z,14.83
2023-04-19T13:52:23.270Z,14.81
2023-04-19T13:54:51.025Z,14.83
2023-04-19T13:57:18.810Z,14.86
2023-04-19T13:59:46.509Z,14.97
2023-04-19T14:02:14.302Z,15.02
2023-04-19T14:04:43.513Z,14.97
2023-04-19T14:07:11.478Z,15.01
2023-04-19T14:09:39.220Z,15.02
2023-04-19T14:12:09.058Z,15.04
2023-04-19T14:14:36.774Z,15.03
2023-04-19T14:17:04.627Z,15.02
2023-04-19T14:19:32.320Z,15.06
2023-04-19T14:22:01.458Z,15.04
2023-04-19T14:24:29.194Z,15.07
2023-04-19T14:29:31.160Z,15.17
2023-04-19T14:32:05.151Z,15.18
2023-04-19T14:34:38.340Z,15.20
2023-04-19T14:37:07.482Z,15.23
2023-04-19T14:39:35.245Z,15.22
2023-04-19T14:42:03.316Z,15.26
2023-04-19T14:44:31.032Z,15.28
2023-04-19T14:46:58.735Z,15.28
2023-04-19T14:49:26.768Z,15.25
2023-04-19T14:51:54.490Z,15.24
2023-04-19T14:54:23.640Z,15.24
2023-04-19T14:56:52.742Z,15.27
2023-04-19T14:59:20.568Z,15.26
2023-04-19T15:01:48.469Z,15.24
2023-04-19T15:04:16.482Z,15.16
2023-04-19T15:06:44.484Z,15.20
2023-04-19T15:09:12.235Z,15.17
2023-04-19T15:11:41.366Z,15.17
2023-04-19T15:14:09.757Z,15.16
2023-04-19T15:16:38.717Z,15.14
2023-04-19T15:19:07.495Z,15.11
2023-04-19T15:21:35.435Z,15.09
2023-04-19T15:24:03.826Z,15.08
2023-04-19T15:26:31.582Z,15.08
2023-04-19T15:29:00.610Z,15.10
2023-04-19T15:31:28.351Z,15.16
2023-04-19T15:33:56.108Z,15.18
2023-04-19T15:36:23.803Z,15.18
2023-04-19T15:38:51.532Z,15.17
2023-04-19T15:41:19.242Z,15.15
2023-04-19T15:43:47.016Z,15.14
2023-04-19T15:46:16.681Z,15.13
2023-04-19T15:48:46.697Z,15.13
2023-04-19T15:51:15.310Z,15.15
2023-04-19T15:53:43.118Z,15.14
2023-04-19T15:56:11.475Z,15.14
2023-04-19T15:58:39.218Z,15.14
2023-04-19T16:01:09.620Z,15.13
2023-04-19T16:03:38.932Z,15.12
2023-04-19T16:06:06.805Z,15.14
2023-04-19T16:08:34.544Z,15.14
2023-04-19T16:11:02.279Z,15.11
2023-04-19T16:13:31.454Z,15.10
2023-04-19T16:15:59.373Z,15.12
2023-04-19T16:18:27.130Z,15.09
2023-04-19T16:20:56.226Z,15.07
2023-04-19T16:23:24.860Z,15.05
2023-04-19T16:25:53.794Z,15.04
2023-04-19T16:28:24.676Z,15.02
2023-04-19T16:30:52.431Z,15.00
2023-04-19T16:33:20.695Z,14.98
2023-04-19T16:35:48.451Z,14.98
2023-04-19T16:38:17.600Z,14.96
2023-04-19T16:40:47.919Z,14.94
2023-04-19T16:43:15.676Z,14.92
2023-04-19T16:45:43.532Z,14.90
2023-04-19T16:48:11.486Z,14.88
2023-04-19T16:50:39.304Z,14.88
2023-04-19T16:53:07.005Z,14.81
2023-04-19T16:55:36.163Z,14.90
2023-04-19T16:58:03.918Z,14.89
2023-04-19T17:00:31.677Z,14.88
2023-04-19T17:02:59.510Z,14.85
2023-04-19T17:05:27.333Z,14.76
2023-04-19T17:07:56.733Z,14.84
2023-04-19T17:10:25.657Z,14.84
2023-04-19T17:12:55.547Z,14.78
2023-04-19T17:15:23.384Z,14.83
2023-04-19T17:17:51.116Z,14.81
2023-04-19T17:20:19.059Z,14.81
2023-04-19T17:22:46.871Z,14.80
2023-04-19T17:25:14.744Z,14.82
2023-04-19T17:27:42.457Z,14.81
2023-04-19T17:30:12.345Z,14.82
2023-04-19T17:32:40.135Z,14.80
2023-04-19T17:35:08.326Z,14.78
2023-04-19T17:37:36.141Z,14.77
2023-04-19T17:40:04.013Z,14.77
2023-04-19T17:42:31.733Z,14.79
2023-04-19T17:45:00.269Z,14.79
2023-04-19T17:47:29.729Z,14.79
2023-04-19T17:50:07.109Z,14.78
2023-04-19T17:52:34.960Z,14.77
2023-04-19T17:55:04.718Z,14.75
2023-04-19T17:57:33.810Z,14.76
2023-04-19T18:00:06.116Z,14.75
2023-04-19T18:02:36.694Z,14.74
2023-04-19T18:05:04.888Z,14.73
2023-04-19T18:07:32.721Z,14.72
2023-04-19T18:10:00.562Z,14.70
2023-04-19T18:12:28.407Z,14.72
2023-04-19T18:14:56.168Z,14.71
2023-04-19T18:17:23.892Z,14.71
2023-04-19T18:19:53.024Z,14.70
2023-04-19T18:22:21.027Z,14.70
2023-04-19T18:24:51.143Z,14.68
2023-04-19T18:27:18.966Z,14.67
2023-04-19T18:29:46.766Z,14.66
2023-04-19T18:32:14.755Z,14.64
2023-04-19T18:34:42.574Z,14.64
2023-04-19T18:37:17.400Z,14.63
2023-04-19T18:39:45.291Z,14.61
2023-04-19T18:42:13.270Z,14.60
2023-04-19T18:44:52.044Z,14.58
2023-04-19T18:47:21.209Z,14.56
2023-04-19T18:50:02.900Z,14.55
2023-04-19T18:52:33.388Z,14.52
2023-04-19T18:55:01.136Z,14.50
2023-04-19T18:57:30.493Z,14.49
2023-04-19T19:00:01.565Z,14.49
2023-04-19T19:02:29.617Z,14.47
2023-04-19T19:05:01.009Z,14.44
2023-04-19T19:10:04.004Z,14.40
2023-04-19T19:12:42.861Z,14.39
2023-04-19T19:15:11.294Z,14.37
2023-04-19T19:17:39.123Z,14.37
2023-04-19T19:20:08.344Z,14.34
2023-04-19T19:22:36.163Z,14.25
2023-04-19T19:25:05.772Z,14.31
2023-04-19T19:27:33.536Z,14.30
2023-04-19T19:30:03.379Z,14.30
2023-04-19T19:32:31.267Z,14.27
2023-04-19T19:35:02.422Z,14.18
2023-04-19T19:37:32.479Z,14.24
2023-04-19T19:40:04.285Z,14.23
2023-04-19T19:42:35.397Z,14.21
2023-04-19T19:45:03.754Z,14.16
2023-04-19T19:47:35.170Z,14.18
2023-04-19T19:50:48.684Z,14.18
2023-04-19T19:52:52.549Z,14.15
2023-04-19T19:55:20.340Z,14.07
2023-04-19T19:58:23.782Z,14.12
2023-04-19T20:00:46.107Z,14.11
2023-04-19T20:03:24.646Z,14.09
2023-04-19T20:06:03.753Z,14.07
2023-04-19T20:08:44.160Z,14.06
2023-04-19T20:11:12.492Z,14.04
2023-04-19T20:13:41.592Z,14.03
2023-04-19T20:16:10.010Z,14.00
2023-04-19T20:18:38.729Z,13.98
2023-04-19T20:21:06.451Z,13.97
2023-04-19T20:23:34.207Z,13.95
2023-04-19T20:26:01.940Z,13.93
2023-04-19T20:28:29.655Z,13.92
2023-04-19T20:30:58.723Z,13.90
2023-04-19T20:33:28.258Z,13.88
2023-04-19T20:35:56.794Z,13.86
2023-04-19T20:38:26.492Z,13.85
2023-04-19T20:40:54.699Z,13.83
2023-04-19T20:43:22.380Z,13.75
2023-04-19T20:45:50.202Z,13.80
2023-04-19T20:48:19.332Z,13.79
2023-04-19T20:50:47.054Z,13.77
2023-04-19T20:53:14.837Z,13.75
2023-04-19T20:55:43.532Z,13.72
2023-04-19T20:58:11.737Z,13.72
2023-04-19T21:00:39.504Z,13.69
2023-04-19T21:03:07.853Z,13.66
2023-04-19T21:05:37.420Z,13.64
2023-04-19T21:08:05.465Z,13.62
2023-04-19T21:10:33.285Z,13.59
2023-04-19T21:13:01.099Z,13.55
2023-04-19T21:15:28.831Z,13.56
2023-04-19T21:17:56.589Z,13.53
2023-04-19T21:20:24.403Z,13.53
2023-04-19T21:22:53.436Z,13.51
2023-04-19T21:25:21.380Z,13.50
2023-04-19T21:27:49.101Z,13.49
2023-04-19T21:30:16.868Z,13.46
2023-04-19T21:32:44.573Z,13.44
2023-04-19T21:35:12.368Z,13.35
2023-04-19T21:37:40.227Z,13.35
2023-04-19T21:40:10.203Z,13.29
2023-04-19T21:42:37.997Z,13.27
2023-04-19T21:45:06.617Z,13.27
2023-04-19T21:47:34.388Z,13.28
2023-04-19T21:50:02.101Z,13.27
2023-04-19T21:52:29.951Z,13.26
2023-04-19T21:54:57.687Z,13.26
2023-04-19T21:57:27.169Z,13.23
2023-04-19T21:59:55.000Z,13.22
2023-04-19T22:02:22.818Z,13.22
2023-04-19T22:04:50.901Z,13.22
2023-04-19T22:07:19.338Z,13.20
2023-04-19T22:09:47.665Z,13.18
2023-04-19T22:12:15.407Z,13.17
2023-04-19T22:14:45.614Z,13.12
2023-04-19T22:17:13.324Z,13.12
2023-04-19T22:19:41.021Z,13.13
2023-04-19T22:22:08.737Z,13.11
2023-04-19T22:24:41.373Z,13.09
2023-04-19T22:27:21.346Z,13.07
2023-04-19T22:29:50.465Z,13.06
2023-04-19T22:32:18.488Z,13.04
2023-04-19T22:34:47.394Z,13.02
2023-04-19T22:37:15.086Z,12.99
2023-04-19T22:39:42.793Z,12.98
2023-04-19T22:42:10.534Z,12.97
2023-04-19T22:44:40.565Z,12.95
2023-04-19T22:47:09.624Z,12.93
2023-04-19T22:49:37.321Z,12.88
2023-04-19T22:52:05.572Z,12.91
2023-04-19T22:54:33.258Z,12.89
2023-04-19T22:57:00.989Z,12.87
2023-04-19T22:59:28.683Z,12.85
2023-04-19T23:01:56.601Z,12.85
2023-04-19T23:04:25.767Z,12.82
2023-04-19T23:06:53.650Z,12.81
2023-04-19T23:09:21.817Z,12.80
2023-04-19T23:11:49.570Z,12.80
2023-04-19T23:14:18.412Z,12.80
2023-04-19T23:16:46.541Z,12.78
2023-04-19T23:19:15.747Z,12.76
2023-04-19T23:21:45.024Z,12.74
2023-04-19T23:24:12.746Z,12.73
2023-04-19T23:26:40.480Z,12.70
2023-04-19T23:29:08.175Z,12.69
2023-04-19T23:31:35.960Z,12.68
2023-04-19T23:34:03.742Z,12.65
2023-04-19T23:36:31.465Z,12.66
2023-04-19T23:39:00.523Z,12.65
2023-04-19T23:41:28.232Z,12.62
2023-04-19T23:43:56.014Z,12.61
2023-04-19T23:46:23.897Z,12.60
2023-04-19T23:48:51.692Z,12.58
2023-04-19T23:51:19.448Z,12.56
2023-04-19T23:53:47.153Z,12.54
2023-04-19T23:56:16.202Z,12.52
2023-04-19T23:58:43.932Z,12.50
